Time;durP1;ratioP1;P1;durP2;ratioP2;P2;SDS_P1;SDS_P2;PMS_P1;PMS_P2;Temp;Humidity;BMP_temperature;BMP_pressure;BME280_temperature;BME280_humidity;BME280_pressure;Samples;Min_cycle;Max_cycle;Signal;HPM_P1;HPM_P2
2023/04/08 00:00:20;;;;;;;13.48;7.40;;;6.00;88.60;;;;;;5014870;28;20458;-74
2023/04/08 00:02:46;;;;;;;10.52;6.53;;;5.90;88.40;;;;;;5026832;28;20021;-74
2023/04/08 00:05:11;;;;;;;14.60;6.88;;;6.00;88.60;;;;;;5028120;28;20067;-73
2023/04/08 00:07:37;;;;;;;11.25;6.85;;;6.00;88.60;;;;;;5020763;28;20425;-76
2023/04/08 00:10:03;;;;;;;14.40;7.55;;;6.00;88.80;;;;;;5027690;28;20071;-74
2023/04/08 00:12:29;;;;;;;13.48;7.85;;;6.00;88.60;;;;;;5027449;28;20797;-73
2023/04/08 00:14:54;;;;;;;12.52;7.22;;;5.90;88.90;;;;;;5027934;28;20025;-74
2023/04/08 00:17:20;;;;;;;13.38;7.70;;;5.90;89.00;;;;;;5028285;28;20033;-74
2023/04/08 00:19:45;;;;;;;14.75;8.13;;;6.00;89.20;;;;;;5029103;28;20029;-73
2023/04/08 00:22:11;;;;;;;13.45;8.10;;;6.00;88.90;;;;;;5028279;28;20022;-78
2023/04/08 00:24:37;;;;;;;13.82;7.65;;;6.00;89.10;;;;;;5025226;28;20045;-76
2023/04/08 00:27:02;;;;;;;16.60;8.05;;;5.90;89.10;;;;;;5025870;28;20103;-78
2023/04/08 00:29:28;;;;;;;11.35;7.70;;;6.00;89.20;;;;;;5027213;28;20386;-75
2023/04/08 00:31:54;;;;;;;14.07;8.02;;;6.00;89.30;;;;;;5029355;28;20045;-76
2023/04/08 00:34:19;;;;;;;15.82;7.47;;;6.00;89.00;;;;;;5027689;28;20116;-75
2023/04/08 00:36:46;;;;;;;15.60;7.93;;;6.00;89.20;;;;;;5021432;28;20041;-81
2023/04/08 00:39:12;;;;;;;13.48;8.55;;;6.00;89.10;;;;;;5024378;28;20401;-77
2023/04/08 00:41:38;;;;;;;17.27;8.60;;;6.00;89.30;;;;;;5020792;28;20382;-75
2023/04/08 00:44:03;;;;;;;14.00;9.00;;;5.90;89.30;;;;;;5028915;28;20104;-76
2023/04/08 00:46:30;;;;;;;17.27;8.32;;;5.90;89.50;;;;;;5028895;28;20084;-76
2023/04/08 00:48:55;;;;;;;15.65;8.07;;;5.90;89.40;;;;;;5021944;28;20054;-76
2023/04/08 00:51:21;;;;;;;15.45;8.90;;;5.90;89.60;;;;;;5026757;28;20381;-74
2023/04/08 00:53:46;;;;;;;14.63;8.38;;;6.00;89.70;;;;;;5024949;28;20060;-77
2023/04/08 00:56:12;;;;;;;13.10;8.35;;;5.90;89.60;;;;;;5028757;28;20081;-73
2023/04/08 00:58:38;;;;;;;18.38;9.13;;;5.80;89.70;;;;;;5023524;28;20042;-75
2023/04/08 01:01:17;;;;;;;18.15;9.32;;;5.80;90.00;;;;;;5010345;28;20359;-73
2023/04/08 01:03:56;;;;;;;19.92;9.38;;;5.90;90.10;;;;;;5026597;28;20021;-74
2023/04/08 01:06:36;;;;;;;17.10;9.50;;;6.00;89.90;;;;;;5023940;28;20103;-74
2023/04/08 01:09:04;;;;;;;16.00;9.85;;;5.90;90.00;;;;;;5019586;28;20025;-74
2023/04/08 01:11:33;;;;;;;18.08;9.45;;;5.90;90.00;;;;;;5020784;28;20423;-74
2023/04/08 01:14:00;;;;;;;19.50;9.85;;;5.90;90.00;;;;;;5026893;28;20029;-74
2023/04/08 01:16:26;;;;;;;20.60;10.77;;;5.90;90.20;;;;;;5025817;28;20060;-74
2023/04/08 01:18:53;;;;;;;16.35;8.95;;;5.90;90.10;;;;;;5029580;28;20029;-73
2023/04/08 01:21:20;;;;;;;19.27;9.77;;;5.90;90.20;;;;;;5031605;28;20040;-74
2023/04/08 01:24:28;;;;;;;17.27;10.27;;;5.90;90.20;;;;;;5023606;28;20520;-77
2023/04/08 01:26:56;;;;;;;14.20;9.75;;;5.90;90.20;;;;;;5024929;28;20200;-73
2023/04/08 01:29:23;;;;;;;16.60;10.15;;;5.90;90.50;;;;;;5025929;28;20411;-74
2023/04/08 01:31:49;;;;;;;17.75;9.80;;;6.00;90.20;;;;;;5026018;28;20029;-74
2023/04/08 01:34:17;;;;;;;21.52;11.32;;;6.00;90.30;;;;;;5027640;28;20022;-73
2023/04/08 01:36:44;;;;;;;19.55;10.57;;;5.90;90.20;;;;;;5023074;28;20041;-75
2023/04/08 01:39:10;;;;;;;17.95;10.30;;;5.90;90.30;;;;;;5027696;28;20525;-74
2023/04/08 01:41:37;;;;;;;18.33;10.55;;;5.90;90.20;;;;;;5025058;28;20136;-73
2023/04/08 01:44:04;;;;;;;18.98;10.73;;;5.90;90.40;;;;;;5026947;28;20068;-74
2023/04/08 01:46:31;;;;;;;19.00;10.93;;;5.90;90.50;;;;;;5026971;28;20045;-76
2023/04/08 01:48:57;;;;;;;18.38;10.25;;;6.00;90.40;;;;;;5021769;28;20056;-74
2023/04/08 01:51:25;;;;;;;20.45;10.73;;;6.00;90.40;;;;;;5024248;28;20320;-76
2023/04/08 01:53:51;;;;;;;21.35;10.52;;;6.00;90.50;;;;;;5018162;28;20095;-74
2023/04/08 01:56:21;;;;;;;19.75;10.63;;;6.00;90.60;;;;;;5009168;28;20433;-74
2023/04/08 01:58:51;;;;;;;20.35;11.13;;;6.00;90.80;;;;;;5029207;28;20729;-76
2023/04/08 02:01:21;;;;;;;19.63;10.65;;;6.00;90.80;;;;;;5027239;28;20328;-76
2023/04/08 02:03:47;;;;;;;20.08;11.20;;;6.00;90.70;;;;;;5021451;28;20041;-76
2023/04/08 02:06:13;;;;;;;22.90;11.55;;;6.10;90.90;;;;;;5025988;28;20045;-74
2023/04/08 02:08:38;;;;;;;24.45;11.27;;;6.00;91.10;;;;;;5006561;28;20088;-74
2023/04/08 02:11:04;;;;;;;19.33;10.77;;;6.00;91.10;;;;;;5026736;28;20199;-73
2023/04/08 02:13:31;;;;;;;23.05;10.60;;;6.00;91.20;;;;;;5021961;28;20040;-74
2023/04/08 02:16:08;;;;;;;21.52;10.57;;;6.10;91.30;;;;;;5021339;28;20172;-77
2023/04/08 02:18:36;;;;;;;22.98;10.23;;;6.00;91.20;;;;;;5027256;28;20108;-72
2023/04/08 02:21:13;;;;;;;16.30;10.07;;;6.10;91.20;;;;;;5024075;28;20025;-75
2023/04/08 02:23:41;;;;;;;19.77;11.27;;;6.10;91.10;;;;;;5027010;28;20038;-80
2023/04/08 02:26:13;;;;;;;18.20;10.55;;;6.10;91.00;;;;;;5025310;28;20490;-73
2023/04/08 02:28:40;;;;;;;20.95;11.18;;;6.10;91.20;;;;;;5015866;28;20038;-75
2023/04/08 02:31:09;;;;;;;18.95;10.43;;;6.10;91.00;;;;;;5017209;28;20024;-73
2023/04/08 02:33:37;;;;;;;21.50;10.88;;;6.10;91.00;;;;;;5013892;28;20034;-74
2023/04/08 02:36:04;;;;;;;19.83;10.43;;;6.10;91.10;;;;;;5031920;28;20412;-74
2023/04/08 02:38:30;;;;;;;19.52;11.15;;;6.20;91.00;;;;;;5026669;28;20037;-76
2023/04/08 02:40:55;;;;;;;18.73;10.05;;;6.20;90.80;;;;;;5009827;28;20024;-74
2023/04/08 02:43:25;;;;;;;21.23;10.75;;;6.10;90.70;;;;;;5013107;28;20200;-74
2023/04/08 02:45:51;;;;;;;17.20;10.13;;;6.10;91.00;;;;;;5024088;28;20028;-73
2023/04/08 02:48:16;;;;;;;20.05;10.07;;;6.10;91.00;;;;;;5026316;28;20133;-81
2023/04/08 02:50:42;;;;;;;17.05;9.70;;;6.10;90.80;;;;;;5024449;28;20116;-74
2023/04/08 02:53:08;;;;;;;15.50;9.45;;;5.90;90.80;;;;;;5022027;28;20423;-77
2023/04/08 02:55:34;;;;;;;18.73;9.60;;;5.90;91.30;;;;;;5020539;28;20045;-74
2023/04/08 02:57:59;;;;;;;16.02;9.73;;;5.80;91.40;;;;;;5026685;28;20139;-75
2023/04/08 03:00:25;;;;;;;20.75;9.98;;;5.90;91.50;;;;;;5020811;28;20053;-74
2023/04/08 03:02:50;;;;;;;19.00;9.77;;;5.80;91.50;;;;;;5018414;28;20175;-75
2023/04/08 03:05:16;;;;;;;17.23;10.02;;;5.80;91.80;;;;;;5008911;28;20076;-74
2023/04/08 03:07:41;;;;;;;19.75;10.45;;;5.80;91.80;;;;;;5025503;28;20022;-81
2023/04/08 03:10:07;;;;;;;19.98;9.93;;;5.90;92.10;;;;;;5020322;28;20455;-75
2023/04/08 03:12:33;;;;;;;17.85;9.63;;;5.90;91.80;;;;;;5026948;28;20096;-77
2023/04/08 03:15:00;;;;;;;20.70;10.40;;;5.90;91.70;;;;;;5026651;28;20465;-76
2023/04/08 03:17:26;;;;;;;19.75;10.55;;;5.90;91.50;;;;;;5024184;28;20049;-77
2023/04/08 03:19:51;;;;;;;21.33;11.52;;;5.90;91.50;;;;;;5019806;28;20052;-74
2023/04/08 03:22:18;;;;;;;22.77;12.75;;;6.00;91.70;;;;;;5025433;28;20048;-74
2023/04/08 03:24:43;;;;;;;25.80;13.52;;;5.90;91.80;;;;;;5025978;28;20454;-76
2023/04/08 03:27:09;;;;;;;24.08;14.77;;;6.00;91.90;;;;;;5025427;28;20112;-74
2023/04/08 03:29:34;;;;;;;22.75;14.80;;;6.00;91.80;;;;;;5024133;28;20037;-74
2023/04/08 03:32:00;;;;;;;24.55;14.82;;;6.00;91.90;;;;;;5024599;28;20169;-74
2023/04/08 03:34:25;;;;;;;19.80;13.23;;;5.90;91.80;;;;;;5023536;28;20467;-77
2023/04/08 03:36:51;;;;;;;25.50;14.65;;;6.00;92.10;;;;;;5018320;28;20079;-74
2023/04/08 03:39:16;;;;;;;26.60;14.80;;;6.00;91.80;;;;;;5019037;28;20398;-75
2023/04/08 03:41:42;;;;;;;24.50;15.02;;;6.00;91.70;;;;;;5005371;28;20163;-75
2023/04/08 03:44:07;;;;;;;22.88;14.32;;;6.00;91.60;;;;;;5025856;28;20037;-74
2023/04/08 03:46:33;;;;;;;24.70;15.05;;;6.00;91.80;;;;;;5024271;28;20117;-76
2023/04/08 03:48:58;;;;;;;24.40;16.05;;;6.10;91.70;;;;;;5022448;28;20054;-77
2023/04/08 03:51:24;;;;;;;25.73;15.60;;;6.10;91.60;;;;;;5019044;28;20543;-74
2023/04/08 03:53:49;;;;;;;24.40;15.55;;;6.00;91.50;;;;;;5024774;28;20053;-77
2023/04/08 03:56:15;;;;;;;27.98;16.88;;;6.00;91.50;;;;;;5024527;28;20117;-74
2023/04/08 03:58:40;;;;;;;25.95;16.15;;;6.10;91.70;;;;;;5024948;28;20036;-74
2023/04/08 04:01:06;;;;;;;26.20;15.18;;;6.00;91.50;;;;;;4995837;28;20494;-76
2023/04/08 04:03:31;;;;;;;26.15;16.45;;;6.00;91.50;;;;;;5025132;28;20025;-74
2023/04/08 04:06:00;;;;;;;25.38;16.23;;;6.10;91.50;;;;;;5025881;28;20049;-81
2023/04/08 04:08:25;;;;;;;27.08;17.05;;;6.10;91.60;;;;;;5024103;28;20144;-74
2023/04/08 04:10:51;;;;;;;27.42;17.73;;;6.10;91.70;;;;;;5020947;28;20436;-74
2023/04/08 04:13:18;;;;;;;26.08;17.27;;;6.10;91.40;;;;;;5022416;28;20034;-73
2023/04/08 04:15:44;;;;;;;29.77;18.63;;;6.10;91.50;;;;;;5021569;28;20030;-74
2023/04/08 04:18:09;;;;;;;25.30;16.15;;;6.10;91.50;;;;;;5026160;28;20101;-74
2023/04/08 04:20:37;;;;;;;26.80;16.80;;;6.10;91.60;;;;;;5025202;28;20029;-75
2023/04/08 04:23:02;;;;;;;26.92;15.65;;;6.10;91.70;;;;;;5037094;28;20112;-75
2023/04/08 04:25:28;;;;;;;23.15;14.73;;;6.00;91.70;;;;;;5005267;28;20026;-76
2023/04/08 04:27:53;;;;;;;21.27;13.15;;;6.00;91.80;;;;;;5024985;28;20045;-77
2023/04/08 04:30:19;;;;;;;21.45;12.93;;;6.00;91.80;;;;;;5007641;28;20327;-78
2023/04/08 04:32:44;;;;;;;19.90;12.85;;;5.90;91.80;;;;;;5020042;28;20030;-78
2023/04/08 04:35:11;;;;;;;20.17;12.27;;;6.00;91.80;;;;;;5018683;28;20519;-78
2023/04/08 04:37:36;;;;;;;20.48;12.35;;;6.00;91.90;;;;;;5002866;28;20071;-79
2023/04/08 04:40:04;;;;;;;17.35;11.23;;;6.00;91.90;;;;;;5018487;28;20431;-80
2023/04/08 04:42:29;;;;;;;18.52;11.15;;;6.00;91.90;;;;;;4996398;28;20059;-77
2023/04/08 04:44:55;;;;;;;18.90;10.35;;;5.90;91.80;;;;;;5007475;28;20403;-78
2023/04/08 04:47:20;;;;;;;15.18;10.77;;;5.90;91.80;;;;;;5015706;28;20026;-78
2023/04/08 04:49:46;;;;;;;19.10;11.10;;;5.80;91.90;;;;;;5016912;28;20076;-78
2023/04/08 04:52:11;;;;;;;15.88;11.23;;;5.80;92.00;;;;;;5006772;28;20103;-78
2023/04/08 04:54:38;;;;;;;17.13;11.20;;;5.80;92.00;;;;;;5003085;28;20061;-78
2023/04/08 04:57:03;;;;;;;17.65;11.60;;;5.80;92.00;;;;;;5011176;28;20103;-78
2023/04/08 04:59:29;;;;;;;20.85;12.07;;;5.80;92.00;;;;;;5025599;28;20127;-81
2023/04/08 05:01:56;;;;;;;20.83;11.77;;;5.80;92.10;;;;;;5017440;28;20025;-78
2023/04/08 05:04:25;;;;;;;19.55;11.90;;;5.80;92.30;;;;;;5022061;28;20056;-78
2023/04/08 05:06:50;;;;;;;20.73;12.55;;;5.80;92.30;;;;;;5018934;28;20025;-80
2023/04/08 05:09:16;;;;;;;19.90;12.32;;;5.90;92.20;;;;;;5033769;28;20036;-81
2023/04/08 05:11:41;;;;;;;21.42;11.90;;;5.90;92.10;;;;;;5028420;28;20084;-78
2023/04/08 05:14:07;;;;;;;18.25;12.13;;;5.90;92.10;;;;;;5024308;28;20037;-79
2023/04/08 05:16:33;;;;;;;19.75;12.18;;;5.90;92.10;;;;;;5024064;28;20038;-78
2023/04/08 05:18:58;;;;;;;22.50;11.68;;;5.80;92.20;;;;;;5007035;28;20176;-77
2023/04/08 05:21:25;;;;;;;18.52;11.20;;;5.80;92.40;;;;;;5023185;28;20034;-77
2023/04/08 05:23:51;;;;;;;20.25;12.07;;;5.80;92.30;;;;;;5022660;28;20120;-79
2023/04/08 05:26:21;;;;;;;20.38;12.02;;;5.80;92.40;;;;;;5026492;28;20052;-77
2023/04/08 05:28:47;;;;;;;25.02;11.73;;;5.80;92.50;;;;;;5007165;28;20037;-78
2023/04/08 05:31:16;;;;;;;20.58;11.73;;;5.80;92.70;;;;;;5026467;28;20080;-84
2023/04/08 05:33:42;;;;;;;19.42;12.23;;;5.80;92.60;;;;;;5023648;28;20402;-84
2023/04/08 05:36:07;;;;;;;21.98;12.20;;;5.80;92.70;;;;;;5015802;28;20044;-84
2023/04/08 05:38:33;;;;;;;19.75;12.18;;;5.80;92.50;;;;;;5021161;28;20025;-84
2023/04/08 05:40:59;;;;;;;21.60;13.20;;;5.80;92.60;;;;;;5017320;28;20085;-83
2023/04/08 05:43:24;;;;;;;20.65;11.68;;;5.80;92.50;;;;;;5022705;28;20415;-86
2023/04/08 05:45:50;;;;;;;18.98;12.63;;;5.80;92.60;;;;;;5027917;28;20033;-86
2023/04/08 05:48:15;;;;;;;21.67;12.88;;;5.80;92.70;;;;;;5024453;28;20053;-83
2023/04/08 05:50:41;;;;;;;20.40;11.75;;;5.80;92.50;;;;;;5026193;28;20120;-83
2023/04/08 05:53:08;;;;;;;21.60;11.65;;;5.80;92.60;;;;;;5014476;28;20073;-81
2023/04/08 05:55:33;;;;;;;25.63;12.50;;;5.70;92.80;;;;;;5023414;28;20081;-82
2023/04/08 05:57:59;;;;;;;20.50;12.15;;;5.70;92.90;;;;;;5029448;28;20048;-83
2023/04/08 06:00:25;;;;;;;23.00;11.77;;;5.80;93.00;;;;;;5023379;28;20482;-83
2023/04/08 06:02:50;;;;;;;18.88;11.77;;;5.70;92.70;;;;;;5012253;28;20078;-83
2023/04/08 06:05:16;;;;;;;21.25;10.93;;;5.70;92.90;;;;;;5018696;28;20040;-86
2023/04/08 06:07:41;;;;;;;22.13;12.02;;;5.70;92.90;;;;;;5013617;28;20415;-85
2023/04/08 06:10:07;;;;;;;21.40;11.70;;;5.70;93.00;;;;;;5025662;28;20072;-82
2023/04/08 06:12:38;;;;;;;22.30;12.05;;;5.80;93.00;;;;;;5025253;28;20041;-75
2023/04/08 06:15:05;;;;;;;25.30;12.40;;;5.80;92.90;;;;;;5026021;28;20036;-79
2023/04/08 06:17:30;;;;;;;24.65;12.70;;;5.80;92.90;;;;;;5025580;28;20048;-81
2023/04/08 06:19:56;;;;;;;21.27;12.13;;;5.80;93.10;;;;;;5025707;28;20120;-81
2023/04/08 06:22:21;;;;;;;22.23;10.88;;;5.80;92.90;;;;;;5019751;28;20092;-81
2023/04/08 06:24:47;;;;;;;24.65;13.10;;;5.80;93.00;;;;;;5040129;28;20107;-84
2023/04/08 06:27:13;;;;;;;27.65;12.38;;;5.90;93.10;;;;;;5041178;28;20077;-91
2023/04/08 06:29:38;;;;;;;23.58;13.30;;;5.90;93.10;;;;;;5019662;28;20064;-83
2023/04/08 06:32:05;;;;;;;22.15;12.60;;;6.00;93.00;;;;;;5025568;28;20117;-88
2023/04/08 06:34:30;;;;;;;23.85;12.93;;;6.00;92.90;;;;;;5030939;28;20104;-87
2023/04/08 06:36:56;;;;;;;30.27;13.75;;;6.00;92.90;;;;;;5009839;28;20392;-82
2023/04/08 06:39:21;;;;;;;21.67;12.68;;;6.00;92.90;;;;;;5016442;28;20370;-86
2023/04/08 06:41:47;;;;;;;24.70;13.32;;;6.10;92.80;;;;;;5021703;28;20044;-82
2023/04/08 06:44:12;;;;;;;24.63;13.15;;;6.10;92.80;;;;;;5025707;28;20044;-81
2023/04/08 06:46:38;;;;;;;20.45;12.23;;;6.10;92.80;;;;;;5031292;28;20037;-81
2023/04/08 06:49:05;;;;;;;21.75;12.05;;;6.10;92.90;;;;;;5031489;28;20045;-86
2023/04/08 06:51:31;;;;;;;21.38;12.40;;;6.10;92.50;;;;;;5035113;28;20033;-83
2023/04/08 06:53:56;;;;;;;24.27;12.98;;;6.20;92.80;;;;;;5031729;28;20041;-82
2023/04/08 06:56:24;;;;;;;22.52;12.75;;;6.20;92.80;;;;;;5030719;28;20496;-85
2023/04/08 06:58:50;;;;;;;24.95;12.93;;;6.30;92.60;;;;;;5021549;28;20034;-84
2023/04/08 07:01:16;;;;;;;23.58;12.52;;;6.10;92.40;;;;;;5030952;28;20048;-87
2023/04/08 07:03:42;;;;;;;21.77;12.43;;;6.20;92.60;;;;;;5034050;28;20029;-84
2023/04/08 07:06:07;;;;;;;23.98;12.25;;;6.30;92.60;;;;;;5024908;28;20009;-85
2023/04/08 07:08:33;;;;;;;24.50;13.43;;;6.20;92.50;;;;;;5046734;28;20037;-83
2023/04/08 07:10:58;;;;;;;26.52;13.07;;;6.20;92.30;;;;;;5039171;28;20427;-83
2023/04/08 07:13:24;;;;;;;27.23;13.48;;;6.30;92.40;;;;;;5043465;28;20044;-84
2023/04/08 07:15:50;;;;;;;22.73;12.95;;;6.40;92.40;;;;;;5025652;28;20093;-85
2023/04/08 07:18:15;;;;;;;22.52;12.95;;;6.40;92.40;;;;;;5018528;28;20029;-86
2023/04/08 07:20:41;;;;;;;24.17;12.98;;;6.50;92.20;;;;;;5032758;28;20171;-85
2023/04/08 07:23:06;;;;;;;24.73;13.07;;;6.50;92.20;;;;;;5028048;28;20049;-83
2023/04/08 07:25:34;;;;;;;26.73;14.05;;;6.60;92.20;;;;;;5014595;28;20034;-81
2023/04/08 07:27:59;;;;;;;22.75;12.57;;;6.50;92.20;;;;;;5022953;28;20720;-81
2023/04/08 07:30:25;;;;;;;24.70;12.48;;;6.60;92.10;;;;;;5020738;28;20112;-80
2023/04/08 07:32:51;;;;;;;23.10;13.30;;;6.50;91.90;;;;;;5017002;28;20017;-78
2023/04/08 07:35:22;;;;;;;23.70;12.88;;;6.60;92.30;;;;;;5006690;28;20469;-80
2023/04/08 07:37:48;;;;;;;22.80;13.57;;;6.80;92.30;;;;;;5008347;28;20059;-79
2023/04/08 07:40:14;;;;;;;22.35;13.05;;;6.80;91.60;;;;;;5023854;28;20105;-78
2023/04/08 07:42:40;;;;;;;23.10;13.23;;;6.80;91.70;;;;;;5022451;28;20044;-78
2023/04/08 07:45:06;;;;;;;21.48;13.30;;;7.00;91.30;;;;;;5013425;28;20037;-80
2023/04/08 07:47:32;;;;;;;30.02;14.57;;;6.90;90.90;;;;;;5025275;28;20397;-77
2023/04/08 07:49:57;;;;;;;26.23;13.73;;;6.90;91.30;;;;;;5026688;28;20034;-80
2023/04/08 07:52:23;;;;;;;24.05;12.95;;;7.00;91.40;;;;;;5006194;28;20109;-81
2023/04/08 07:54:48;;;;;;;25.10;13.15;;;6.80;91.20;;;;;;5006164;28;20165;-81
2023/04/08 07:57:14;;;;;;;24.88;12.57;;;6.80;91.10;;;;;;5006384;28;20017;-80
2023/04/08 07:59:40;;;;;;;20.90;12.40;;;6.80;90.90;;;;;;4999042;28;20113;-81
2023/04/08 08:02:05;;;;;;;21.27;11.57;;;6.90;91.20;;;;;;5020093;28;20025;-82
2023/04/08 08:04:31;;;;;;;20.00;12.18;;;6.90;90.90;;;;;;5006797;28;20454;-81
2023/04/08 08:06:57;;;;;;;18.77;11.27;;;6.70;91.30;;;;;;5016965;28;20108;-79
2023/04/08 08:09:22;;;;;;;19.20;11.82;;;6.70;90.70;;;;;;5012804;28;20337;-80
2023/04/08 08:11:48;;;;;;;22.20;12.57;;;6.80;91.50;;;;;;5005609;28;20039;-79
2023/04/08 08:14:14;;;;;;;23.63;12.18;;;6.80;91.00;;;;;;5011170;28;20390;-76
2023/04/08 08:16:40;;;;;;;18.80;11.45;;;6.80;91.20;;;;;;5015022;28;20087;-76
2023/04/08 08:19:07;;;;;;;21.08;12.57;;;7.00;91.00;;;;;;5021586;28;20025;-75
2023/04/08 08:21:35;;;;;;;20.30;12.48;;;7.10;91.00;;;;;;5018424;28;20613;-77
2023/04/08 08:24:01;;;;;;;21.30;11.68;;;7.10;90.80;;;;;;5023485;28;20507;-78
2023/04/08 08:26:27;;;;;;;21.35;12.48;;;7.10;90.40;;;;;;5023163;28;20106;-77
2023/04/08 08:28:53;;;;;;;19.98;11.75;;;7.30;90.50;;;;;;5025044;28;20087;-77
2023/04/08 08:31:18;;;;;;;19.23;11.63;;;7.20;90.50;;;;;;5010671;28;20140;-79
2023/04/08 08:33:44;;;;;;;21.05;12.18;;;7.40;90.10;;;;;;5009909;28;20018;-78
2023/04/08 08:36:10;;;;;;;20.38;11.25;;;7.50;90.00;;;;;;5023452;28;20072;-78
2023/04/08 08:38:35;;;;;;;21.92;11.55;;;7.40;89.40;;;;;;5022291;28;20391;-78
2023/04/08 08:41:02;;;;;;;20.17;11.57;;;7.40;89.40;;;;;;5026114;28;20033;-81
2023/04/08 08:43:28;;;;;;;15.82;10.75;;;7.50;89.10;;;;;;5010180;28;20037;-81
2023/04/08 08:45:54;;;;;;;17.00;10.40;;;7.60;89.00;;;;;;5018385;28;20037;-79
2023/04/08 08:48:20;;;;;;;16.60;10.73;;;7.60;88.80;;;;;;5015793;28;20072;-79
2023/04/08 08:50:46;;;;;;;15.30;10.13;;;7.70;88.50;;;;;;5026281;28;20465;-78
2023/04/08 08:53:11;;;;;;;18.80;10.60;;;7.70;88.60;;;;;;5025049;28;20330;-80
2023/04/08 08:55:38;;;;;;;21.48;10.38;;;7.80;88.10;;;;;;5032747;28;20043;-82
2023/04/08 08:58:04;;;;;;;21.48;10.55;;;7.90;87.70;;;;;;5031443;28;20021;-82
2023/04/08 09:00:31;;;;;;;18.77;10.98;;;7.90;87.90;;;;;;5030406;28;20061;-80
2023/04/08 09:03:28;;;;;;;20.00;10.88;;;7.90;88.00;;;;;;5014998;28;20036;-80
2023/04/08 09:06:02;;;;;;;19.27;11.10;;;8.00;87.90;;;;;;5019225;28;20179;-80
2023/04/08 09:08:28;;;;;;;19.02;11.38;;;7.90;87.20;;;;;;5005848;28;20423;-79
2023/04/08 09:10:55;;;;;;;24.25;11.65;;;8.00;88.20;;;;;;5028291;28;20156;-79
2023/04/08 09:13:23;;;;;;;21.75;11.32;;;8.00;88.20;;;;;;5027154;28;20034;-82
2023/04/08 09:16:03;;;;;;;26.13;11.63;;;8.10;87.80;;;;;;5024024;28;20034;-80
2023/04/08 09:18:30;;;;;;;26.80;12.43;;;8.20;87.50;;;;;;5018217;28;20033;-80
2023/04/08 09:20:55;;;;;;;22.52;12.00;;;8.10;87.70;;;;;;5027837;28;20053;-84
2023/04/08 09:23:21;;;;;;;27.75;11.98;;;8.10;87.60;;;;;;5013632;28;20370;-82
2023/04/08 09:25:46;;;;;;;20.23;11.73;;;8.10;88.00;;;;;;5019545;28;20499;-83
2023/04/08 09:28:21;;;;;;;21.83;12.20;;;8.10;87.60;;;;;;5006248;28;20041;-81
2023/04/08 09:30:47;;;;;;;20.92;12.10;;;8.10;87.50;;;;;;5020218;28;20432;-82
2023/04/08 09:33:12;;;;;;;22.80;12.43;;;7.90;87.90;;;;;;5018223;28;20100;-85
2023/04/08 09:35:38;;;;;;;24.98;12.50;;;8.00;88.00;;;;;;5032676;28;20100;-84
2023/04/08 09:38:04;;;;;;;20.45;12.30;;;8.00;88.10;;;;;;5019973;28;20108;-83
2023/04/08 09:40:36;;;;;;;20.85;11.98;;;7.90;88.20;;;;;;5026223;28;20034;-83
2023/04/08 09:43:04;;;;;;;21.30;12.40;;;7.90;88.00;;;;;;5028681;28;20038;-83
2023/04/08 09:45:32;;;;;;;21.33;11.63;;;7.90;88.50;;;;;;5029145;28;20064;-82
2023/04/08 09:48:11;;;;;;;21.35;11.60;;;7.90;87.70;;;;;;5004556;28;20053;-83
2023/04/08 09:50:41;;;;;;;22.65;12.55;;;8.00;88.20;;;;;;5026058;28;20029;-82
2023/04/08 09:53:14;;;;;;;18.75;11.60;;;7.90;87.70;;;;;;5026503;28;20040;-83
2023/04/08 09:55:41;;;;;;;19.40;11.63;;;8.00;88.00;;;;;;5025407;28;20394;-82
2023/04/08 09:58:19;;;;;;;19.45;11.50;;;8.10;87.90;;;;;;5022281;28;20158;-83
2023/04/08 10:00:50;;;;;;;20.60;11.02;;;8.00;87.70;;;;;;5021463;28;20109;-83
2023/04/08 10:03:42;;;;;;;;;;;8.20;87.60;;;;;;5029209;28;20095;-82
2023/04/08 10:06:09;;;;;;;19.38;10.32;;;8.20;87.60;;;;;;5022783;28;20286;-83
2023/04/08 10:08:35;;;;;;;20.67;12.35;;;8.10;87.40;;;;;;5028742;28;20332;-83
2023/04/08 10:11:00;;;;;;;21.42;12.18;;;8.30;87.20;;;;;;5020622;28;20100;-82
2023/04/08 10:13:27;;;;;;;25.20;11.75;;;8.30;87.10;;;;;;5009252;28;20518;-83
2023/04/08 10:16:19;;;;;;;21.45;11.27;;;8.40;87.10;;;;;;5027849;28;20433;-82
2023/04/08 10:18:45;;;;;;;18.15;11.55;;;8.60;87.00;;;;;;5007667;28;20022;-82
2023/04/08 10:21:30;;;;;;;22.67;11.63;;;8.80;86.40;;;;;;5024919;28;20087;-83
2023/04/08 10:24:04;;;;;;;26.25;11.73;;;8.50;86.00;;;;;;5027339;28;20446;-82
2023/04/08 10:26:35;;;;;;;19.77;11.77;;;8.50;86.50;;;;;;5028440;28;20339;-82
2023/04/08 10:29:29;;;;;;;19.40;12.05;;;8.50;86.20;;;;;;5018714;28;20021;-82
2023/04/08 10:31:56;;;;;;;19.45;10.50;;;8.70;86.10;;;;;;5007807;28;20038;-83
2023/04/08 10:34:26;;;;;;;23.88;12.00;;;8.80;86.00;;;;;;5027501;28;20179;-83
2023/04/08 10:36:54;;;;;;;22.63;11.68;;;8.90;85.60;;;;;;5009651;28;20067;-83
2023/04/08 10:39:20;;;;;;;19.48;11.05;;;8.70;85.30;;;;;;5029937;28;20092;-83
2023/04/08 10:41:47;;;;;;;20.73;10.48;;;8.60;85.60;;;;;;5029121;28;20033;-83
2023/04/08 10:44:26;;;;;;;16.60;10.77;;;8.50;85.30;;;;;;5010414;28;20124;-83
2023/04/08 10:46:53;;;;;;;17.90;10.23;;;8.60;85.90;;;;;;5027495;28;20535;-83
2023/04/08 10:49:20;;;;;;;19.60;10.48;;;8.40;85.40;;;;;;5003038;28;20180;-83
2023/04/08 10:51:46;;;;;;;17.65;9.43;;;8.40;86.00;;;;;;5005244;28;20063;-83
2023/04/08 10:54:17;;;;;;;19.42;11.02;;;8.50;85.90;;;;;;5003412;28;20109;-83
2023/04/08 10:56:51;;;;;;;16.58;9.85;;;8.60;85.60;;;;;;5003894;28;20049;-83
2023/04/08 10:59:26;;;;;;;21.20;10.70;;;8.60;85.80;;;;;;5021349;28;20104;-83
2023/04/08 11:01:51;;;;;;;16.63;9.93;;;8.70;85.70;;;;;;5007261;28;20064;-82
2023/04/08 11:04:18;;;;;;;17.02;10.07;;;8.60;85.10;;;;;;5005574;28;20069;-82
2023/04/08 11:06:45;;;;;;;18.88;10.70;;;8.70;85.80;;;;;;5006208;28;20330;-83
2023/04/08 11:09:11;;;;;;;19.90;10.65;;;8.60;84.80;;;;;;5006093;28;20030;-83
2023/04/08 11:11:37;;;;;;;18.05;10.55;;;8.60;85.60;;;;;;5001730;28;20542;-83
2023/04/08 11:14:03;;;;;;;22.02;10.57;;;8.60;85.90;;;;;;5005002;28;20050;-84
2023/04/08 11:16:28;;;;;;;17.85;9.90;;;8.50;85.20;;;;;;5006436;28;20446;-83
2023/04/08 11:18:54;;;;;;;18.70;10.93;;;8.60;85.90;;;;;;5019704;28;20030;-82
2023/04/08 11:21:22;;;;;;;21.85;11.63;;;8.80;85.80;;;;;;5004752;28;20044;-84
2023/04/08 11:23:51;;;;;;;18.67;10.88;;;8.70;85.50;;;;;;5007187;28;20033;-82
2023/04/08 11:26:18;;;;;;;18.92;10.27;;;8.60;84.90;;;;;;5013616;28;20104;-84
2023/04/08 11:28:44;;;;;;;22.42;11.27;;;8.90;85.60;;;;;;5009129;28;20088;-83
2023/04/08 11:31:11;;;;;;;20.00;11.88;;;8.90;85.20;;;;;;5008466;28;20037;-82
2023/04/08 11:33:37;;;;;;;17.02;10.63;;;9.10;85.00;;;;;;5020360;28;20038;-84
2023/04/08 11:36:03;;;;;;;18.40;11.88;;;9.00;84.40;;;;;;5001699;28;20030;-83
2023/04/08 11:38:29;;;;;;;18.67;11.20;;;9.00;84.40;;;;;;5007100;28;20076;-84
2023/04/08 11:40:58;;;;;;;16.70;10.27;;;9.00;84.80;;;;;;5002908;28;20447;-84
2023/04/08 11:43:25;;;;;;;18.90;11.73;;;9.10;84.20;;;;;;5001635;28;20026;-83
2023/04/08 11:45:50;;;;;;;18.35;11.57;;;9.10;84.50;;;;;;5011511;28;20029;-83
2023/04/08 11:48:16;;;;;;;19.48;10.82;;;9.10;83.60;;;;;;5022487;28;20130;-83
2023/04/08 11:50:43;;;;;;;17.65;11.57;;;9.10;84.50;;;;;;5026720;28;20184;-83
2023/04/08 11:53:35;;;;;;;19.33;11.27;;;9.10;83.80;;;;;;5023373;28;20347;-83
2023/04/08 11:56:17;;;;;;;17.30;11.15;;;9.30;84.50;;;;;;5007493;28;20095;-84
2023/04/08 11:58:42;;;;;;;24.10;12.07;;;9.20;83.40;;;;;;5027600;28;20056;-83
2023/04/08 12:01:08;;;;;;;18.98;11.02;;;9.20;84.00;;;;;;5031517;28;20067;-84
2023/04/08 12:03:33;;;;;;;17.98;11.50;;;9.30;83.60;;;;;;5009004;28;20212;-83
2023/04/08 12:05:59;;;;;;;17.30;10.02;;;9.40;83.60;;;;;;5024122;28;20065;-83
2023/04/08 12:08:24;;;;;;;19.05;11.20;;;9.60;83.20;;;;;;5029700;28;20048;-83
2023/04/08 12:10:50;;;;;;;18.63;10.75;;;9.50;83.00;;;;;;5029879;28;20033;-84
2023/04/08 12:13:15;;;;;;;16.88;10.50;;;9.40;82.90;;;;;;5013097;28;20049;-84
2023/04/08 12:15:41;;;;;;;18.75;11.13;;;9.50;83.10;;;;;;5030563;28;20049;-84
2023/04/08 12:18:07;;;;;;;19.02;10.20;;;9.40;82.70;;;;;;5044113;28;20030;-84
2023/04/08 12:20:32;;;;;;;19.50;11.18;;;9.60;83.20;;;;;;5043699;28;20094;-84
2023/04/08 12:22:58;;;;;;;18.55;11.30;;;9.50;82.70;;;;;;5028843;28;20047;-83
2023/04/08 12:25:23;;;;;;;15.63;11.10;;;9.70;82.50;;;;;;5033347;28;20163;-83
2023/04/08 12:27:49;;;;;;;16.92;10.75;;;9.50;82.50;;;;;;5056440;28;20174;-83
2023/04/08 12:30:14;;;;;;;19.40;10.35;;;9.50;82.60;;;;;;5036621;28;20532;-83
2023/04/08 12:32:41;;;;;;;23.23;11.45;;;9.50;83.40;;;;;;5039980;28;20032;-83
2023/04/08 12:35:07;;;;;;;20.27;11.38;;;9.50;82.70;;;;;;5037558;28;20033;-82
2023/04/08 12:37:32;;;;;;;17.52;10.98;;;9.40;83.00;;;;;;5019060;28;20033;-83